createdAt,value
2022-12-08T05:31:04.201Z,57.80
2022-12-08T05:32:04.313Z,61.00
2022-12-08T05:33:04.154Z,54.60
2022-12-08T05:34:04.110Z,59.40
2022-12-08T05:35:04.137Z,57.40
2022-12-08T05:36:04.089Z,54.90
2022-12-08T05:37:04.076Z,57.00
2022-12-08T05:38:04.093Z,61.80
2022-12-08T05:39:04.189Z,55.90
2022-12-08T05:40:04.330Z,57.50
2022-12-08T05:41:04.018Z,57.10
2022-12-08T05:42:04.010Z,61.10
2022-12-08T05:43:04.029Z,56.70
2022-12-08T05:44:11.112Z,57.90
2022-12-08T05:45:03.979Z,56.40
2022-12-08T05:46:04.001Z,48.80
2022-12-08T05:47:03.939Z,47.60
2022-12-08T05:48:03.943Z,43.90
2022-12-08T05:49:03.916Z,46.40
2022-12-08T05:50:04.252Z,51.30
2022-12-08T05:51:03.893Z,50.80
2022-12-08T05:52:03.890Z,52.70
2022-12-08T05:53:03.891Z,49.90
2022-12-08T05:54:03.860Z,51.70
2022-12-08T05:55:03.829Z,49.70
2022-12-08T05:56:03.827Z,49.70
2022-12-08T05:57:03.810Z,48.00
2022-12-08T05:58:07.896Z,44.60
2022-12-08T05:59:03.778Z,46.30
2022-12-08T06:00:04.140Z,42.50
2022-12-08T06:01:03.760Z,45.70
2022-12-08T06:02:03.850Z,44.00
2022-12-08T06:03:03.810Z,47.40
2022-12-08T06:04:03.724Z,45.60
2022-12-08T06:05:03.712Z,41.00
2022-12-08T06:06:03.705Z,37.50
2022-12-08T06:07:03.679Z,38.70
2022-12-08T06:08:03.732Z,39.10
2022-12-08T06:09:03.680Z,39.10
2022-12-08T06:10:03.821Z,39.90
2022-12-08T06:11:03.643Z,36.90
2022-12-08T06:12:03.646Z,35.80
2022-12-08T06:13:03.645Z,42.10
2022-12-08T06:14:03.598Z,39.60
2022-12-08T06:15:03.575Z,37.60
2022-12-08T06:16:03.565Z,44.00
2022-12-08T06:17:03.585Z,41.20
2022-12-08T06:18:03.547Z,40.50
2022-12-08T06:19:03.525Z,39.00
2022-12-08T06:20:03.893Z,39.80
2022-12-08T06:21:03.495Z,41.30
2022-12-08T06:22:03.494Z,39.90
2022-12-08T06:23:03.556Z,39.90
2022-12-08T06:24:03.462Z,38.30
2022-12-08T06:25:06.112Z,42.50
2022-12-08T06:26:04.451Z,38.70
2022-12-08T06:27:03.423Z,39.00
2022-12-08T06:28:03.422Z,38.40
2022-12-08T06:29:03.393Z,37.20
2022-12-08T06:30:03.711Z,37.70
2022-12-08T06:31:03.392Z,39.30
2022-12-08T06:32:03.413Z,40.30
2022-12-08T06:33:03.369Z,40.20
2022-12-08T06:34:03.352Z,41.30
2022-12-08T06:35:03.320Z,40.20
2022-12-08T06:36:03.312Z,38.80
2022-12-08T06:37:03.292Z,38.30
2022-12-08T06:38:03.290Z,38.50
2022-12-08T06:39:03.262Z,36.10
2022-12-08T06:40:03.601Z,39.20
2022-12-08T06:41:03.240Z,36.70
2022-12-08T06:42:03.229Z,39.50
2022-12-08T06:43:03.228Z,38.00
2022-12-08T06:44:03.215Z,38.40
2022-12-08T06:45:03.178Z,38.00
2022-12-08T06:46:03.238Z,38.00
2022-12-08T06:47:03.177Z,36.50
2022-12-08T06:48:03.176Z,40.40
2022-12-08T06:49:03.138Z,50.00
2022-12-08T06:50:03.722Z,40.60
2022-12-08T06:51:03.119Z,37.10
2022-12-08T06:52:03.108Z,34.30
2022-12-08T06:53:05.524Z,38.50
2022-12-08T06:54:03.068Z,44.70
2022-12-08T06:55:03.067Z,39.60
2022-12-08T06:56:03.046Z,35.50
2022-12-08T06:57:03.026Z,33.90
2022-12-08T06:58:03.037Z,34.40
2022-12-08T06:59:03.014Z,35.40
2022-12-08T07:00:03.655Z,36.20
2022-12-08T07:01:03.097Z,33.80
2022-12-08T07:02:03.006Z,31.00
2022-12-08T07:03:03.076Z,34.00
2022-12-08T07:04:02.955Z,35.20
2022-12-08T07:05:02.925Z,34.60
2022-12-08T07:06:04.412Z,33.30
2022-12-08T07:07:02.927Z,31.40
2022-12-08T07:08:02.943Z,34.30
2022-12-08T07:09:02.895Z,29.90
2022-12-08T07:10:03.292Z,27.80
2022-12-08T07:11:02.844Z,30.30
2022-12-08T07:12:02.833Z,31.10
2022-12-08T07:13:02.825Z,27.60
2022-12-08T07:14:02.822Z,27.30
2022-12-08T07:15:02.793Z,26.80
2022-12-08T07:16:02.785Z,28.40
2022-12-08T07:17:02.859Z,21.30
2022-12-08T07:18:02.762Z,21.10
2022-12-08T07:19:02.753Z,21.20
2022-12-08T07:20:02.976Z,22.70
2022-12-08T07:21:02.714Z,19.90
2022-12-08T07:22:02.714Z,20.40
2022-12-08T07:23:02.703Z,20.30
2022-12-08T07:24:02.709Z,20.00
2022-12-08T07:25:02.671Z,17.90
2022-12-08T07:26:02.651Z,20.20
2022-12-08T07:27:02.639Z,19.80
2022-12-08T07:28:02.644Z,23.00
2022-12-08T07:29:02.630Z,18.90
2022-12-08T07:30:03.011Z,19.90
2022-12-08T07:31:02.706Z,20.60
2022-12-08T07:32:02.579Z,20.10
2022-12-08T07:33:02.561Z,21.30
2022-12-08T07:34:02.570Z,20.30
2022-12-08T07:35:02.539Z,19.40
2022-12-08T07:36:02.532Z,23.20
2022-12-08T07:37:02.517Z,20.40
2022-12-08T07:38:02.512Z,22.90
2022-12-08T07:39:02.549Z,21.60
2022-12-08T07:40:02.846Z,21.30
2022-12-08T07:41:02.506Z,21.70
2022-12-08T07:42:02.503Z,22.70
2022-12-08T07:43:02.457Z,20.50
2022-12-08T07:44:02.460Z,20.60
2022-12-08T07:45:02.450Z,24.10
2022-12-08T07:46:02.505Z,19.80
2022-12-08T07:47:02.409Z,19.70
2022-12-08T07:48:02.371Z,21.50
2022-12-08T07:49:02.496Z,18.60
2022-12-08T07:50:02.574Z,18.10
2022-12-08T07:51:02.410Z,18.90
2022-12-08T07:52:02.359Z,18.70
2022-12-08T07:53:02.342Z,19.60
2022-12-08T07:54:02.344Z,19.20
2022-12-08T07:55:02.322Z,17.10
2022-12-08T07:56:02.437Z,17.40
2022-12-08T07:57:02.344Z,17.80
2022-12-08T07:58:02.244Z,15.50
2022-12-08T07:59:02.276Z,16.50
2022-12-08T08:00:02.507Z,16.30
2022-12-08T08:01:02.372Z,14.60
2022-12-08T08:02:22.818Z,15.80
2022-12-08T08:03:03.248Z,15.30
2022-12-08T08:04:02.224Z,14.00
2022-12-08T08:05:02.258Z,18.00
2022-12-08T08:06:02.147Z,15.10
2022-12-08T08:07:02.359Z,14.90
2022-12-08T08:08:02.169Z,15.50
2022-12-08T08:09:02.206Z,16.80
2022-12-08T08:10:02.356Z,16.40
2022-12-08T08:11:08.946Z,14.70
2022-12-08T08:12:29.523Z,14.80
2022-12-08T08:13:03.042Z,15.60
2022-12-08T08:14:02.082Z,17.00
2022-12-08T08:15:03.027Z,17.60
2022-12-08T08:16:02.121Z,15.30
2022-12-08T08:17:02.084Z,16.10
2022-12-08T08:18:01.992Z,15.90
2022-12-08T08:19:02.005Z,14.70
2022-12-08T08:20:02.299Z,14.60
2022-12-08T08:21:15.861Z,12.20
2022-12-08T08:22:02.930Z,13.70
2022-12-08T08:23:01.910Z,11.60
2022-12-08T08:24:01.901Z,12.70
2022-12-08T08:25:01.908Z,11.70
2022-12-08T08:26:01.879Z,10.40
2022-12-08T08:27:01.869Z,11.90
2022-12-08T08:28:01.850Z,9.10
2022-12-08T08:29:01.832Z,9.00
2022-12-08T08:30:03.149Z,9.10
2022-12-08T08:31:01.888Z,10.10
2022-12-08T08:32:01.806Z,8.80
2022-12-08T08:33:01.787Z,10.30
2022-12-08T08:34:01.787Z,7.80
2022-12-08T08:35:01.775Z,10.30
2022-12-08T08:36:01.747Z,8.20
2022-12-08T08:37:01.770Z,10.40
2022-12-08T08:38:01.731Z,9.20
2022-12-08T08:39:01.696Z,10.50
2022-12-08T08:40:02.122Z,8.90
2022-12-08T08:41:01.697Z,8.90
2022-12-08T08:42:01.671Z,8.50
2022-12-08T08:43:01.656Z,8.70
2022-12-08T08:44:01.653Z,9.00
2022-12-08T08:45:01.652Z,9.30
2022-12-08T08:46:01.718Z,8.60
2022-12-08T08:47:01.604Z,9.00
2022-12-08T08:48:01.596Z,8.90
2022-12-08T08:49:01.587Z,8.90
2022-12-08T08:50:01.777Z,9.60
2022-12-08T08:51:01.554Z,8.40
2022-12-08T08:52:01.564Z,9.20
2022-12-08T08:53:01.524Z,9.00
2022-12-08T08:54:01.553Z,10.30
2022-12-08T08:55:01.524Z,9.30
2022-12-08T08:56:02.775Z,9.20
2022-12-08T08:57:01.483Z,8.90
2022-12-08T08:58:01.462Z,9.70
2022-12-08T08:59:01.450Z,11.30
2022-12-08T09:00:01.577Z,11.30
2022-12-08T09:01:01.423Z,10.90
2022-12-08T09:02:01.492Z,9.80
2022-12-08T09:03:01.405Z,11.00
2022-12-08T09:04:01.511Z,10.60
2022-12-08T09:05:01.442Z,11.00
2022-12-08T09:06:01.533Z,11.60
2022-12-08T09:07:01.341Z,11.40
2022-12-08T09:08:01.374Z,11.60
2022-12-08T09:09:01.330Z,10.70
2022-12-08T09:10:02.092Z,11.20
2022-12-08T09:11:01.332Z,11.80
2022-12-08T09:12:01.281Z,11.80
2022-12-08T09:13:01.272Z,12.50
2022-12-08T09:14:01.255Z,12.80
2022-12-08T09:15:01.260Z,13.00
2022-12-08T09:16:01.272Z,10.10
2022-12-08T09:17:01.233Z,12.20
2022-12-08T09:18:01.211Z,11.10
2022-12-08T09:19:01.197Z,12.40
2022-12-08T09:20:01.382Z,11.10
2022-12-08T09:21:01.187Z,12.80
2022-12-08T09:22:01.150Z,12.10
2022-12-08T09:23:01.138Z,13.50
2022-12-08T09:24:01.129Z,11.10
2022-12-08T09:25:01.108Z,10.60
2022-12-08T09:26:01.147Z,11.10
2022-12-08T09:27:01.095Z,11.90
2022-12-08T09:28:01.089Z,12.50
2022-12-08T09:29:01.076Z,11.90
2022-12-08T09:30:01.486Z,11.00
2022-12-08T09:31:01.085Z,11.50
2022-12-08T09:32:01.027Z,9.70
2022-12-08T09:33:01.015Z,11.20
2022-12-08T09:34:00.995Z,12.00
2022-12-08T09:35:00.975Z,12.70
2022-12-08T09:36:00.988Z,12.80
2022-12-08T09:37:00.955Z,12.00
2022-12-08T09:38:00.943Z,9.00
2022-12-08T09:39:00.935Z,8.90
2022-12-08T09:40:00.924Z,8.60
2022-12-08T09:41:00.913Z,6.40
2022-12-08T09:42:00.904Z,7.60
2022-12-08T09:43:00.873Z,7.50
2022-12-08T09:44:00.863Z,8.80
2022-12-08T09:45:00.861Z,9.10
2022-12-08T09:46:00.880Z,9.20
2022-12-08T09:47:00.897Z,9.50
2022-12-08T09:48:00.835Z,7.20
2022-12-08T09:49:00.802Z,5.60
2022-12-08T09:50:00.791Z,5.50
2022-12-08T09:51:00.791Z,6.50
2022-12-08T09:52:00.764Z,5.30
2022-12-08T09:53:00.756Z,5.50
2022-12-08T09:54:00.765Z,7.20
2022-12-08T09:55:00.721Z,6.80
2022-12-08T09:56:00.720Z,5.80
2022-12-08T09:57:00.700Z,6.30
2022-12-08T09:58:00.690Z,6.00
2022-12-08T09:59:00.669Z,4.40
2022-12-08T10:00:00.668Z,4.10
2022-12-08T10:01:00.667Z,4.50
2022-12-08T10:02:00.686Z,6.10
2022-12-08T10:03:00.619Z,4.10
2022-12-08T10:04:00.610Z,5.80
2022-12-08T10:05:00.646Z,5.20
2022-12-08T10:06:00.618Z,4.40
2022-12-08T10:07:00.581Z,5.00
2022-12-08T10:08:00.588Z,5.20
2022-12-08T10:09:00.568Z,6.70
2022-12-08T10:10:00.544Z,5.50
2022-12-08T10:11:00.539Z,5.50
2022-12-08T10:12:00.508Z,6.00
2022-12-08T10:13:00.498Z,6.20
2022-12-08T10:14:00.487Z,5.40
2022-12-08T10:15:00.466Z,7.00
2022-12-08T10:16:00.533Z,5.90
2022-12-08T10:17:00.488Z,5.70
2022-12-08T10:18:00.454Z,5.70
2022-12-08T10:19:00.439Z,6.80
2022-12-08T10:20:00.434Z,6.30
2022-12-08T10:21:00.396Z,6.40
2022-12-08T10:22:00.399Z,6.70
2022-12-08T10:23:00.396Z,5.80
2022-12-08T10:24:00.378Z,6.20
2022-12-08T10:25:00.334Z,7.80
2022-12-08T10:26:00.334Z,6.60
2022-12-08T10:27:00.327Z,8.30
2022-12-08T10:28:00.309Z,5.90
2022-12-08T10:29:00.299Z,6.90
2022-12-08T10:30:00.290Z,6.60
2022-12-08T10:31:00.322Z,8.10
2022-12-08T10:32:00.388Z,8.10
2022-12-08T10:33:00.247Z,7.70
2022-12-08T10:34:00.234Z,6.80
2022-12-08T10:35:00.215Z,7.00
2022-12-08T10:36:00.203Z,6.70
2022-12-08T10:37:00.203Z,7.30
2022-12-08T10:38:00.175Z,7.50
2022-12-08T10:39:00.163Z,7.00
2022-12-08T10:40:00.179Z,7.70
2022-12-08T10:41:00.160Z,9.20
2022-12-08T10:42:00.160Z,8.40
2022-12-08T10:43:00.131Z,6.80
2022-12-08T10:44:00.111Z,8.80
2022-12-08T10:45:00.086Z,8.00
2022-12-08T10:46:00.088Z,7.90
2022-12-08T10:47:00.141Z,7.70
2022-12-08T10:48:00.051Z,10.20
2022-12-08T10:49:00.039Z,8.10
2022-12-08T10:50:00.021Z,8.10
2022-12-08T10:51:00.009Z,8.00
2022-12-08T10:52:00.013Z,7.40
2022-12-08T10:52:59.988Z,9.10
2022-12-08T10:53:59.968Z,8.00
2022-12-08T10:54:59.956Z,8.90
2022-12-08T10:55:59.948Z,7.70
2022-12-08T10:56:59.948Z,8.80
2022-12-08T10:57:59.922Z,7.60
2022-12-08T10:58:59.931Z,8.90
2022-12-08T10:59:59.888Z,8.10
2022-12-08T11:00:59.924Z,8.80
2022-12-08T11:01:59.979Z,9.20
2022-12-08T11:02:59.929Z,8.60
2022-12-08T11:03:59.846Z,9.50
2022-12-08T11:04:59.828Z,8.60
2022-12-08T11:06:03.998Z,8.60
2022-12-08T11:07:00.803Z,7.60
2022-12-08T11:07:59.862Z,9.10
2022-12-08T11:08:59.775Z,10.00
2022-12-08T11:09:59.779Z,10.20
2022-12-08T11:10:59.745Z,8.50
2022-12-08T11:11:59.759Z,7.50
2022-12-08T11:12:59.724Z,8.80
2022-12-08T11:13:59.713Z,9.10
2022-12-08T11:14:59.703Z,10.00
2022-12-08T11:15:59.723Z,9.30
2022-12-08T11:16:59.725Z,8.70
2022-12-08T11:17:59.684Z,10.40
2022-12-08T11:18:59.653Z,10.50
2022-12-08T11:19:59.632Z,10.90
2022-12-08T11:20:59.624Z,12.90
2022-12-08T11:21:59.615Z,11.50
2022-12-08T11:22:59.606Z,9.70
2022-12-08T11:23:59.602Z,12.50
2022-12-08T11:24:59.563Z,11.20
2022-12-08T11:25:59.562Z,12.80
2022-12-08T11:26:59.544Z,9.80
2022-12-08T11:27:59.540Z,11.20
2022-12-08T11:28:59.520Z,11.30
2022-12-08T11:29:59.511Z,9.60
2022-12-08T11:30:59.490Z,10.90
2022-12-08T11:31:59.572Z,9.00
2022-12-08T11:32:59.483Z,10.50
2022-12-08T11:33:59.452Z,11.10
2022-12-08T11:34:59.440Z,10.10
2022-12-08T11:35:59.439Z,9.90
2022-12-08T11:36:59.410Z,8.00
2022-12-08T11:38:13.507Z,8.50
2022-12-08T11:39:00.389Z,8.40
2022-12-08T11:39:59.388Z,10.30
2022-12-08T11:40:59.358Z,14.20
2022-12-08T11:41:59.372Z,14.00
2022-12-08T11:42:59.365Z,10.20
2022-12-08T11:43:59.333Z,8.00
2022-12-08T11:44:59.316Z,8.80
2022-12-08T11:45:59.412Z,7.80
2022-12-08T11:46:59.288Z,7.40
2022-12-08T11:47:59.277Z,11.20
2022-12-08T11:49:04.329Z,11.20
2022-12-08T11:50:00.247Z,9.00
2022-12-08T11:50:59.237Z,9.50
2022-12-08T11:51:59.225Z,9.60
2022-12-08T11:52:59.228Z,10.10
2022-12-08T11:53:59.195Z,9.10
2022-12-08T11:54:59.189Z,8.10
2022-12-08T11:55:59.165Z,8.90
2022-12-08T11:56:59.166Z,8.20
2022-12-08T11:57:59.216Z,7.70
2022-12-08T11:58:59.139Z,7.20
2022-12-08T11:59:59.117Z,9.10
2022-12-08T12:00:59.108Z,9.10
2022-12-08T12:01:59.123Z,7.80
2022-12-08T12:02:59.219Z,7.70
2022-12-08T12:03:59.083Z,7.90
2022-12-08T12:04:59.068Z,8.10
2022-12-08T12:06:13.590Z,6.90
2022-12-08T12:07:00.030Z,7.30
2022-12-08T12:07:59.110Z,7.10
2022-12-08T12:08:59.005Z,8.70
2022-12-08T12:09:58.978Z,8.80
2022-12-08T12:10:58.972Z,10.30
2022-12-08T12:13:02.127Z,6.70
2022-12-08T12:14:02.098Z,7.20
2022-12-08T12:15:02.087Z,9.00
2022-12-08T12:16:02.069Z,9.40
2022-12-08T12:17:02.204Z,7.30
2022-12-08T12:18:02.058Z,6.90
2022-12-08T12:19:02.039Z,8.10
2022-12-08T12:20:02.176Z,7.80
2022-12-08T12:21:02.008Z,7.70
2022-12-08T12:22:01.998Z,7.90
2022-12-08T12:23:02.001Z,8.50
2022-12-08T12:24:01.967Z,10.30
2022-12-08T12:25:01.948Z,8.60
2022-12-08T12:26:01.947Z,8.20
2022-12-08T12:27:01.925Z,9.10
2022-12-08T12:28:01.963Z,9.20
2022-12-08T12:29:01.896Z,9.40
2022-12-08T12:30:01.908Z,9.10
2022-12-08T12:31:01.966Z,7.90
2022-12-08T12:32:01.865Z,8.40
2022-12-08T12:33:01.858Z,9.30
2022-12-08T12:34:01.847Z,9.30
2022-12-08T12:35:01.832Z,10.20
2022-12-08T12:36:01.815Z,8.50
2022-12-08T12:37:01.809Z,8.80
2022-12-08T12:38:01.784Z,9.40
2022-12-08T12:39:01.792Z,12.30
2022-12-08T12:40:01.830Z,9.70
2022-12-08T12:41:01.753Z,9.10
2022-12-08T12:42:01.732Z,10.00
2022-12-08T12:43:01.723Z,9.00
2022-12-08T12:44:01.727Z,9.80
2022-12-08T12:45:01.706Z,9.10
2022-12-08T12:46:01.744Z,7.90
2022-12-08T12:47:01.662Z,10.40
2022-12-08T12:48:01.652Z,10.50
2022-12-08T12:49:01.652Z,9.40
2022-12-08T12:50:01.756Z,11.20
2022-12-08T12:51:01.615Z,8.40
2022-12-08T12:52:01.599Z,9.10
2022-12-08T12:53:01.592Z,9.00
2022-12-08T12:54:01.581Z,8.90
2022-12-08T12:55:01.561Z,11.00
2022-12-08T12:56:01.569Z,9.40
2022-12-08T12:57:01.533Z,9.20
2022-12-08T12:58:01.518Z,9.90
2022-12-08T12:59:01.511Z,8.20
2022-12-08T13:00:01.490Z,11.60
2022-12-08T13:01:01.562Z,9.20
2022-12-08T13:02:01.489Z,9.10
2022-12-08T13:03:01.475Z,9.10
2022-12-08T13:04:01.472Z,10.10
2022-12-08T13:05:01.428Z,9.40
2022-12-08T13:06:01.429Z,9.30
2022-12-08T13:07:01.407Z,10.70
2022-12-08T13:08:01.431Z,10.30
2022-12-08T13:09:01.379Z,9.60
2022-12-08T13:10:01.356Z,8.90
2022-12-08T13:11:01.351Z,10.70
2022-12-08T13:12:01.337Z,11.50
2022-12-08T13:13:01.328Z,15.30
2022-12-08T13:14:01.318Z,16.20
2022-12-08T13:15:01.296Z,11.80
2022-12-08T13:16:09.995Z,10.50
2022-12-08T13:17:02.381Z,10.00
2022-12-08T13:18:01.264Z,13.00
2022-12-08T13:19:01.256Z,9.10
2022-12-08T13:20:01.225Z,10.10
2022-12-08T13:21:01.250Z,10.40
2022-12-08T13:22:01.198Z,9.20
2022-12-08T13:23:01.188Z,9.40
2022-12-08T13:24:01.186Z,10.20
2022-12-08T13:25:01.165Z,10.50
2022-12-08T13:26:01.173Z,11.30
2022-12-08T13:27:01.136Z,10.10
2022-12-08T13:28:01.117Z,33.70
2022-12-08T13:29:01.127Z,20.20
2022-12-08T13:30:01.093Z,17.30
2022-12-08T13:31:01.114Z,65.90
2022-12-08T13:32:01.064Z,115.80
2022-12-08T13:33:18.142Z,32.20
2022-12-08T13:34:02.056Z,48.10
2022-12-08T13:35:01.032Z,13.30
2022-12-08T13:36:01.033Z,34.30
2022-12-08T13:37:01.026Z,25.50
2022-12-08T13:38:01.006Z,62.90
2022-12-08T13:39:01.014Z,63.20
2022-12-08T13:40:00.981Z,120.10
2022-12-08T13:41:00.950Z,100.80
2022-12-08T13:42:00.934Z,79.30
2022-12-08T13:43:00.921Z,31.70
2022-12-08T13:53:56.905Z,10.60
2022-12-08T13:55:01.902Z,42.90
2022-12-08T13:57:09.901Z,62.70
2022-12-08T13:58:01.803Z,23.10
2022-12-08T13:59:00.720Z,78.30
2022-12-08T14:00:00.701Z,16.70
2022-12-08T14:01:00.769Z,14.50
2022-12-08T14:02:00.660Z,45.40
2022-12-08T14:03:00.707Z,13.60
2022-12-08T14:05:19.084Z,12.50
2022-12-08T14:06:17.560Z,26.50
2022-12-08T14:07:01.599Z,54.50
2022-12-08T14:08:00.650Z,39.90
2022-12-08T14:09:06.945Z,45.10
2022-12-08T14:10:01.577Z,27.50
2022-12-08T14:11:00.555Z,21.40
2022-12-08T14:12:00.535Z,23.40
2022-12-08T14:13:00.528Z,28.90
2022-12-08T14:14:00.507Z,19.50
2022-12-08T14:15:03.830Z,74.00
2022-12-08T14:16:01.554Z,15.00
2022-12-08T14:17:00.475Z,14.10
2022-12-08T14:18:00.456Z,12.30
2022-12-08T14:19:00.446Z,12.00
2022-12-08T14:20:00.448Z,15.00
2022-12-08T14:21:20.453Z,63.70
2022-12-08T14:22:01.402Z,20.30
2022-12-08T14:23:00.393Z,18.50
2022-12-08T14:24:00.374Z,16.00
2022-12-08T14:25:00.387Z,15.20
2022-12-08T14:26:00.363Z,41.70
2022-12-08T14:27:00.344Z,30.10
2022-12-08T14:28:00.333Z,26.10
2022-12-08T14:29:00.375Z,54.70
2022-12-08T14:30:00.314Z,20.80
2022-12-08T14:31:00.330Z,26.00
2022-12-08T14:32:00.284Z,28.50
2022-12-08T14:33:00.267Z,26.30
2022-12-08T14:34:00.254Z,34.80
2022-12-08T14:35:00.253Z,28.70
2022-12-08T14:36:00.222Z,18.30
2022-12-08T14:37:00.212Z,42.30
2022-12-08T14:38:00.289Z,31.90
2022-12-08T14:39:00.189Z,18.90
2022-12-08T14:40:00.188Z,66.70
2022-12-08T14:41:00.161Z,118.40
2022-12-08T14:42:00.141Z,50.30
2022-12-08T14:43:00.130Z,67.10
2022-12-08T14:44:00.120Z,82.30
2022-12-08T14:45:00.123Z,103.90
2022-12-08T14:46:00.165Z,130.30
2022-12-08T14:47:03.989Z,135.70
2022-12-08T14:48:01.070Z,177.10
2022-12-08T14:49:00.903Z,155.40
2022-12-08T14:50:00.049Z,70.60
2022-12-08T14:51:00.030Z,176.60
2022-12-08T14:52:00.010Z,109.20
2022-12-08T14:53:00.001Z,227.30
2022-12-08T14:54:00.055Z,153.80
2022-12-08T14:54:59.989Z,142.30
2022-12-08T14:55:59.958Z,146.50
2022-12-08T14:56:59.952Z,70.80
2022-12-08T14:57:59.937Z,76.90
2022-12-08T14:58:59.930Z,16.80
2022-12-08T14:59:59.937Z,19.80
2022-12-08T15:00:59.908Z,18.80
2022-12-08T15:01:59.930Z,287.80
2022-12-08T15:02:59.878Z,128.80
2022-12-08T15:03:59.868Z,18.40
2022-12-08T15:04:59.952Z,22.10
2022-12-08T15:05:59.842Z,18.80
2022-12-08T15:06:59.828Z,81.00
2022-12-08T15:07:59.898Z,26.50
2022-12-08T15:08:59.807Z,29.40
2022-12-08T15:09:59.826Z,40.30
2022-12-08T15:10:59.796Z,34.20
2022-12-08T15:11:59.755Z,23.40
2022-12-08T15:12:59.746Z,20.20
2022-12-08T15:13:59.735Z,56.40
2022-12-08T15:14:59.723Z,19.40
2022-12-08T15:15:59.777Z,28.50
2022-12-08T15:16:59.694Z,19.40
2022-12-08T15:17:59.684Z,34.80
2022-12-08T15:18:59.676Z,22.70
2022-12-08T15:19:59.662Z,20.40
2022-12-08T15:20:59.685Z,27.60
2022-12-08T15:21:59.633Z,29.20
2022-12-08T15:22:59.614Z,18.60
2022-12-08T15:23:59.613Z,46.10
2022-12-08T15:24:59.594Z,29.70
2022-12-08T15:25:59.607Z,18.20
2022-12-08T15:26:59.571Z,23.90
2022-12-08T15:27:59.572Z,17.90
2022-12-08T15:28:59.540Z,20.20
2022-12-08T15:29:59.532Z,18.40
2022-12-08T15:30:59.594Z,17.60
2022-12-08T15:31:59.509Z,17.50
2022-12-08T15:32:59.492Z,18.30
2022-12-08T15:33:59.481Z,20.30
2022-12-08T15:34:59.461Z,25.60
2022-12-08T15:35:59.471Z,19.50
2022-12-08T15:36:59.431Z,28.20
2022-12-08T15:37:59.438Z,30.00
2022-12-08T15:38:59.448Z,18.00
2022-12-08T15:39:59.400Z,15.70
2022-12-08T15:40:59.415Z,25.70
2022-12-08T15:41:59.380Z,33.70
2022-12-08T15:42:59.368Z,67.50
2022-12-08T15:43:59.354Z,18.80
2022-12-08T15:44:59.337Z,40.40
2022-12-08T15:46:00.300Z,34.50
2022-12-08T15:46:59.352Z,19.00
2022-12-08T15:47:59.299Z,43.60
2022-12-08T15:48:59.289Z,22.80
2022-12-08T15:49:59.276Z,21.40
2022-12-08T15:50:59.270Z,18.90
2022-12-08T15:52:10.730Z,28.20
2022-12-08T15:53:00.240Z,26.50
2022-12-08T15:53:59.228Z,24.60
2022-12-08T15:54:59.211Z,32.00
2022-12-08T15:57:19.197Z,30.00
2022-12-08T15:59:00.250Z,28.10
2022-12-08T15:59:59.147Z,27.30
2022-12-08T16:00:59.244Z,29.00
2022-12-08T16:01:59.171Z,26.70
2022-12-08T16:03:34.233Z,29.60
2022-12-08T16:04:36.891Z,52.40
2022-12-08T16:05:40.083Z,29.30
2022-12-08T16:06:44.309Z,35.80
2022-12-08T16:08:07.785Z,33.90
2022-12-08T16:09:11.367Z,32.30
2022-12-08T16:10:00.151Z,29.70
2022-12-08T16:11:34.485Z,29.60
2022-12-08T16:12:09.455Z,36.60
2022-12-08T16:14:15.555Z,33.30
2022-12-08T16:16:01.321Z,27.70
2022-12-08T16:16:58.923Z,38.60
2022-12-08T16:17:58.920Z,35.70
2022-12-08T16:18:58.905Z,36.70
2022-12-08T16:19:58.909Z,40.10
2022-12-08T16:21:10.280Z,98.90
2022-12-08T16:23:13.393Z,146.60
2022-12-08T16:24:02.240Z,79.50
2022-12-08T16:25:14.690Z,70.10
2022-12-08T16:28:05.256Z,29.50
2022-12-08T16:28:59.770Z,28.10
2022-12-08T16:29:58.821Z,23.20
2022-12-08T16:30:58.770Z,23.80
2022-12-08T16:31:58.828Z,27.20
2022-12-08T16:32:58.721Z,24.80
2022-12-08T16:33:58.713Z,39.40
2022-12-08T16:34:58.889Z,25.90
2022-12-08T16:35:58.689Z,26.60
2022-12-08T16:36:58.679Z,69.70
2022-12-08T16:37:58.671Z,117.30
2022-12-08T16:38:58.649Z,55.60
2022-12-08T16:39:58.775Z,37.20
2022-12-08T16:40:58.622Z,32.70
2022-12-08T16:41:58.626Z,30.80
2022-12-08T16:42:58.589Z,29.00
2022-12-08T16:43:58.578Z,28.20
2022-12-08T16:44:58.566Z,31.40
2022-12-08T16:45:58.592Z,30.00
2022-12-08T16:46:58.556Z,35.20
2022-12-08T16:47:58.526Z,40.50
2022-12-08T16:48:58.517Z,33.70
2022-12-08T16:49:58.505Z,33.70
2022-12-08T16:50:58.499Z,34.60
2022-12-08T16:51:58.486Z,81.10
2022-12-08T16:52:58.466Z,38.70
2022-12-08T16:53:58.573Z,38.20
2022-12-08T16:54:58.447Z,38.10
2022-12-08T16:55:58.425Z,34.90
2022-12-08T16:56:58.425Z,33.80
2022-12-08T16:57:58.394Z,30.70
2022-12-08T16:58:58.392Z,41.00
2022-12-08T16:59:58.409Z,37.10
2022-12-08T17:00:58.422Z,41.50
2022-12-08T17:01:58.362Z,42.40
2022-12-08T17:02:58.343Z,40.70
2022-12-08T17:04:29.931Z,37.60
2022-12-08T17:04:59.362Z,43.80
2022-12-08T17:05:58.293Z,44.10
2022-12-08T17:06:58.326Z,39.60
2022-12-08T17:07:58.337Z,38.50
2022-12-08T17:08:58.265Z,38.50
2022-12-08T17:09:58.343Z,43.40
2022-12-08T17:10:58.270Z,42.90
2022-12-08T17:12:03.474Z,62.40
2022-12-08T17:12:59.225Z,81.30
2022-12-08T17:13:58.191Z,49.70
2022-12-08T17:14:58.190Z,36.80
2022-12-08T17:15:58.170Z,46.80
2022-12-08T17:16:58.239Z,44.00
2022-12-08T17:17:58.141Z,42.20
2022-12-08T17:18:58.139Z,55.80
2022-12-08T17:19:58.121Z,64.50
2022-12-08T17:20:58.110Z,52.80
2022-12-08T17:21:58.098Z,50.50
2022-12-08T17:22:58.079Z,49.50
2022-12-08T17:23:58.061Z,48.50
2022-12-08T17:24:58.058Z,50.00
2022-12-08T17:25:58.037Z,50.30
2022-12-08T17:26:58.049Z,47.70
2022-12-08T17:27:58.008Z,55.10
2022-12-08T17:29:00.959Z,66.20
2022-12-08T17:29:57.991Z,62.10
2022-12-08T17:30:57.978Z,65.90
2022-12-08T17:31:58.010Z,59.00
2022-12-08T17:32:57.959Z,70.60
2022-12-08T17:33:57.926Z,50.90
2022-12-08T17:34:57.928Z,54.60
2022-12-08T17:35:57.907Z,54.00
2022-12-08T17:36:57.909Z,48.10
2022-12-08T17:37:57.895Z,55.40
2022-12-08T17:38:57.876Z,52.50
2022-12-08T17:39:57.855Z,52.70
2022-12-08T17:40:58.728Z,52.30
2022-12-08T17:41:57.825Z,57.00
2022-12-08T17:42:57.828Z,49.50
2022-12-08T17:43:57.804Z,51.00
2022-12-08T17:44:57.795Z,53.80
2022-12-08T17:45:57.812Z,49.20
2022-12-08T17:46:57.764Z,52.30
2022-12-08T17:47:57.763Z,50.10
2022-12-08T17:48:57.746Z,53.40
2022-12-08T17:49:57.724Z,54.10
2022-12-08T17:50:57.714Z,53.90
2022-12-08T17:51:57.696Z,51.00
2022-12-08T17:52:57.693Z,51.70
2022-12-08T17:53:57.671Z,55.20
2022-12-08T17:54:57.685Z,48.60
2022-12-08T17:55:57.642Z,48.90
2022-12-08T17:56:57.641Z,49.80
2022-12-08T17:57:57.643Z,53.70
2022-12-08T17:58:57.612Z,50.40
2022-12-08T17:59:57.593Z,51.60
2022-12-08T18:00:57.648Z,52.70
2022-12-08T18:01:57.626Z,51.60
2022-12-08T18:02:57.629Z,51.60
2022-12-08T18:03:57.542Z,50.70
2022-12-08T18:04:57.530Z,55.20
2022-12-08T18:05:57.520Z,55.10
2022-12-08T18:06:57.509Z,59.20
2022-12-08T18:07:57.564Z,56.90
2022-12-08T18:08:57.480Z,56.70
2022-12-08T18:09:57.462Z,53.90
2022-12-08T18:10:57.451Z,47.90
2022-12-08T18:11:57.440Z,51.40
2022-12-08T18:12:57.469Z,47.10
2022-12-08T18:13:57.418Z,47.90
2022-12-08T18:14:57.397Z,46.50
2022-12-08T18:15:57.389Z,50.40
2022-12-08T18:16:57.459Z,45.70
2022-12-08T18:17:57.378Z,45.40
2022-12-08T18:18:57.362Z,47.00
2022-12-08T18:19:57.361Z,45.20
2022-12-08T18:20:57.320Z,47.90
2022-12-08T18:21:57.314Z,47.00
2022-12-08T18:22:57.325Z,46.40
2022-12-08T18:23:57.356Z,47.40
2022-12-08T18:24:57.286Z,48.30
2022-12-08T18:25:57.273Z,53.40
2022-12-08T18:26:57.243Z,59.90
2022-12-08T18:27:57.246Z,65.10
2022-12-08T18:28:57.224Z,71.00
2022-12-08T18:29:57.248Z,82.80
2022-12-08T18:30:57.295Z,83.70
2022-12-08T18:31:57.185Z,74.20
2022-12-08T18:32:57.667Z,70.40
2022-12-08T18:33:57.154Z,78.40
2022-12-08T18:34:57.133Z,83.30
2022-12-08T18:35:57.133Z,80.40
2022-12-08T18:36:57.118Z,72.90
2022-12-08T18:37:57.125Z,78.70
2022-12-08T18:38:57.092Z,128.10
2022-12-08T18:39:57.073Z,71.70
2022-12-08T18:40:57.065Z,75.40
2022-12-08T18:41:57.053Z,71.80
2022-12-08T18:42:57.045Z,75.70
2022-12-08T18:43:57.040Z,69.50
2022-12-08T18:44:57.012Z,77.40
2022-12-08T18:45:57.047Z,78.10
2022-12-08T18:46:56.992Z,88.20
2022-12-08T18:48:04.042Z,85.10
2022-12-08T18:48:56.961Z,89.80
2022-12-08T18:49:56.952Z,84.70